createdAt,value
2023-04-09T00:00:14.680Z,23.40
2023-04-09T00:02:42.034Z,25.27
2023-04-09T00:05:09.079Z,21.77
2023-04-09T00:07:35.999Z,22.83
2023-04-09T00:10:03.200Z,22.83
2023-04-09T00:12:30.332Z,23.83
2023-04-09T00:14:57.639Z,20.50
2023-04-09T00:17:24.704Z,24.87
2023-04-09T00:19:51.749Z,22.50
2023-04-09T00:22:18.666Z,23.27
2023-04-09T00:24:45.816Z,21.90
2023-04-09T00:27:12.725Z,18.57
2023-04-09T00:29:39.676Z,24.00
2023-04-09T00:32:07.002Z,22.27
2023-04-09T00:34:33.939Z,22.67
2023-04-09T00:37:01.086Z,20.47
2023-04-09T00:39:28.417Z,23.73
2023-04-09T00:42:02.412Z,23.40
2023-04-09T00:44:29.377Z,22.00
2023-04-09T00:46:59.415Z,25.13
2023-04-09T00:49:26.597Z,22.90
2023-04-09T00:51:53.870Z,24.17
2023-04-09T00:54:20.921Z,20.10
2023-04-09T00:56:47.938Z,20.83
2023-04-09T00:59:15.379Z,20.87
2023-04-09T01:01:42.441Z,20.70
2023-04-09T01:04:09.800Z,20.80
2023-04-09T01:06:45.349Z,20.27
2023-04-09T01:09:21.426Z,20.10
2023-04-09T01:12:18.190Z,20.57
2023-04-09T01:14:54.814Z,19.03
2023-04-09T01:17:34.387Z,21.53
2023-04-09T01:20:11.916Z,21.37
2023-04-09T01:22:57.772Z,17.50
2023-04-09T01:25:58.792Z,20.73
2023-04-09T01:28:31.012Z,18.50
2023-04-09T01:31:02.705Z,21.20
2023-04-09T01:33:31.270Z,19.67
2023-04-09T01:35:59.713Z,18.93
2023-04-09T01:38:27.986Z,23.33
2023-04-09T01:40:57.050Z,21.57
2023-04-09T01:43:26.499Z,20.60
2023-04-09T01:45:54.282Z,23.87
2023-04-09T01:48:22.858Z,21.27
2023-04-09T01:50:51.106Z,22.77
2023-04-09T01:53:18.128Z,23.27
2023-04-09T01:55:45.117Z,26.13
2023-04-09T01:58:12.119Z,26.13
2023-04-09T02:00:43.776Z,28.93
2023-04-09T02:03:26.246Z,27.20
2023-04-09T02:05:57.442Z,29.20
2023-04-09T02:08:25.582Z,32.77
2023-04-09T02:10:58.008Z,27.20
2023-04-09T02:13:27.163Z,29.17
2023-04-09T02:15:54.820Z,29.97
2023-04-09T02:18:27.435Z,33.07
2023-04-09T02:20:56.099Z,25.50
2023-04-09T02:23:23.770Z,29.47
2023-04-09T02:25:52.473Z,29.67
2023-04-09T02:28:19.733Z,32.33
2023-04-09T02:30:46.724Z,28.93
2023-04-09T02:33:13.708Z,26.33
2023-04-09T02:35:40.657Z,27.37
2023-04-09T02:38:13.579Z,29.33
2023-04-09T02:40:43.717Z,26.97
2023-04-09T02:43:10.808Z,26.57
2023-04-09T02:45:37.895Z,26.90
2023-04-09T02:48:05.074Z,26.80
2023-04-09T02:50:32.033Z,27.77
2023-04-09T02:52:58.957Z,27.60
2023-04-09T02:55:26.347Z,25.17
2023-04-09T02:57:53.319Z,29.93
2023-04-09T03:00:20.268Z,26.23
2023-04-09T03:02:47.324Z,25.43
2023-04-09T03:05:14.373Z,24.23
2023-04-09T03:07:41.396Z,27.30
2023-04-09T03:10:08.788Z,33.00
2023-04-09T03:12:36.005Z,34.27
2023-04-09T03:15:03.003Z,27.37
2023-04-09T03:17:31.968Z,29.70
2023-04-09T03:19:59.284Z,26.47
2023-04-09T03:22:26.279Z,30.07
2023-04-09T03:24:53.159Z,26.27
2023-04-09T03:27:20.049Z,29.17
2023-04-09T03:29:47.012Z,26.33
2023-04-09T03:32:14.221Z,28.70
2023-04-09T03:34:41.109Z,28.70
2023-04-09T03:37:08.047Z,27.90
2023-04-09T03:39:34.979Z,24.03
2023-04-09T03:42:01.963Z,25.23
2023-04-09T03:44:29.010Z,28.97
2023-04-09T03:46:56.082Z,31.10
2023-04-09T03:49:23.136Z,31.33
2023-04-09T03:51:50.157Z,31.07
2023-04-09T03:54:17.088Z,30.87
2023-04-09T03:56:44.317Z,27.23
2023-04-09T03:59:11.230Z,28.20
2023-04-09T04:01:38.332Z,31.30
2023-04-09T04:04:05.699Z,33.83
2023-04-09T04:06:35.792Z,26.90
2023-04-09T04:09:02.910Z,35.60
2023-04-09T04:11:30.291Z,34.87
2023-04-09T04:13:57.248Z,30.90
2023-04-09T04:16:27.267Z,32.73
2023-04-09T04:18:54.429Z,31.17
2023-04-09T04:21:21.457Z,33.73
2023-04-09T04:23:48.368Z,28.43
2023-04-09T04:26:15.506Z,28.53
2023-04-09T04:28:42.391Z,29.23
2023-04-09T04:31:13.595Z,30.27
2023-04-09T04:33:41.847Z,27.10
2023-04-09T04:36:10.926Z,28.17
2023-04-09T04:38:38.559Z,29.80
2023-04-09T04:41:05.918Z,28.70
2023-04-09T04:43:33.588Z,32.37
2023-04-09T04:46:00.553Z,29.67
2023-04-09T04:48:28.647Z,32.87
2023-04-09T04:51:00.413Z,27.87
2023-04-09T04:53:27.941Z,30.60
2023-04-09T04:55:55.127Z,31.40
2023-04-09T04:58:22.092Z,28.83
2023-04-09T05:00:50.937Z,29.60
2023-04-09T05:03:17.955Z,34.13
2023-04-09T05:05:45.960Z,27.73
2023-04-09T05:08:13.043Z,31.03
2023-04-09T05:10:43.792Z,30.03
2023-04-09T05:13:10.880Z,28.17
2023-04-09T05:15:41.758Z,30.33
2023-04-09T05:18:08.755Z,29.20
2023-04-09T05:20:35.694Z,29.97
2023-04-09T05:23:02.646Z,29.30
2023-04-09T05:25:29.576Z,28.40
2023-04-09T05:27:56.482Z,32.27
2023-04-09T05:30:23.425Z,31.00
2023-04-09T05:32:50.498Z,26.90
2023-04-09T05:35:17.593Z,25.40
2023-04-09T05:37:44.575Z,26.37
2023-04-09T05:40:12.246Z,32.33
2023-04-09T05:42:42.214Z,32.40
2023-04-09T05:45:09.657Z,30.50
2023-04-09T05:47:36.621Z,29.63
2023-04-09T05:50:04.495Z,30.70
2023-04-09T05:52:31.463Z,30.57
2023-04-09T05:54:58.381Z,29.43
2023-04-09T05:57:25.468Z,29.37
2023-04-09T05:59:52.382Z,30.33
2023-04-09T06:02:19.449Z,28.70
2023-04-09T06:04:46.661Z,27.30
2023-04-09T06:07:13.618Z,34.50
2023-04-09T06:09:40.884Z,34.67
2023-04-09T06:12:07.799Z,32.70
2023-04-09T06:14:34.688Z,34.97
2023-04-09T06:17:01.655Z,31.77
2023-04-09T06:19:28.833Z,33.10
2023-04-09T06:21:55.880Z,33.07
2023-04-09T06:24:22.881Z,30.73
2023-04-09T06:26:49.901Z,31.57
2023-04-09T06:29:16.825Z,27.33
2023-04-09T06:31:43.840Z,28.13
2023-04-09T06:34:11.184Z,27.37
2023-04-09T06:36:40.268Z,30.13
2023-04-09T06:39:07.415Z,26.60
2023-04-09T06:41:34.418Z,28.87
2023-04-09T06:44:01.608Z,29.47
2023-04-09T06:46:28.977Z,29.07
2023-04-09T06:48:59.361Z,29.40
2023-04-09T06:51:27.030Z,29.57
2023-04-09T06:53:54.395Z,30.23
2023-04-09T06:56:21.840Z,28.13
2023-04-09T06:58:48.858Z,31.17
2023-04-09T07:01:17.362Z,27.33
2023-04-09T07:03:44.585Z,33.67
2023-04-09T07:06:11.526Z,29.00
2023-04-09T07:08:38.432Z,28.10
2023-04-09T07:11:05.400Z,30.27
2023-04-09T07:13:32.887Z,30.70
2023-04-09T07:16:00.310Z,31.40
2023-04-09T07:18:27.270Z,33.20
2023-04-09T07:20:55.428Z,27.87
2023-04-09T07:23:22.924Z,29.37
2023-04-09T07:25:49.908Z,25.67
2023-04-09T07:28:16.921Z,27.03
2023-04-09T07:30:43.945Z,28.20
2023-04-09T07:33:10.995Z,24.97
2023-04-09T07:35:38.082Z,26.60
2023-04-09T07:38:05.029Z,23.43
2023-04-09T07:40:34.501Z,24.73
2023-04-09T07:43:01.549Z,26.50
2023-04-09T07:45:28.516Z,23.23
2023-04-09T07:47:55.650Z,23.97
2023-04-09T07:50:22.685Z,23.40
2023-04-09T07:52:49.630Z,21.53
2023-04-09T07:55:17.434Z,21.90
2023-04-09T07:57:45.584Z,23.43
2023-04-09T08:00:12.927Z,21.37
2023-04-09T08:02:40.257Z,22.70
2023-04-09T08:05:07.928Z,26.30
2023-04-09T08:07:34.924Z,25.50
2023-04-09T08:10:01.857Z,19.87
2023-04-09T08:12:28.846Z,20.60
2023-04-09T08:14:56.017Z,21.33
2023-04-09T08:17:23.253Z,38.63
2023-04-09T08:19:50.294Z,25.30
2023-04-09T08:22:17.207Z,23.17
2023-04-09T08:24:44.218Z,24.53
2023-04-09T08:27:11.308Z,27.17
2023-04-09T08:29:40.402Z,30.03
2023-04-09T08:32:08.111Z,32.50
2023-04-09T08:34:35.137Z,37.27
2023-04-09T08:37:02.452Z,24.27
2023-04-09T08:39:29.427Z,23.80
2023-04-09T08:42:01.750Z,24.30
2023-04-09T08:44:29.933Z,25.53
2023-04-09T08:46:58.523Z,25.00
2023-04-09T08:49:26.594Z,28.17
2023-04-09T08:51:53.592Z,28.40
2023-04-09T08:54:20.541Z,24.87
2023-04-09T08:56:47.778Z,23.03
2023-04-09T08:59:21.107Z,23.30
2023-04-09T09:01:54.237Z,24.07
2023-04-09T09:04:21.534Z,23.63
2023-04-09T09:06:48.583Z,22.27
2023-04-09T09:09:16.982Z,26.83
2023-04-09T09:11:45.970Z,23.60
2023-04-09T09:14:16.059Z,25.47
2023-04-09T09:17:04.609Z,22.73
2023-04-09T09:19:37.197Z,22.37
2023-04-09T09:22:06.155Z,20.33
2023-04-09T09:24:34.435Z,21.33
2023-04-09T09:27:02.487Z,21.77
2023-04-09T09:29:29.524Z,19.53
2023-04-09T09:31:56.682Z,19.80
2023-04-09T09:34:25.565Z,20.97
2023-04-09T09:36:52.502Z,21.13
2023-04-09T09:39:19.579Z,19.33
2023-04-09T09:41:47.399Z,18.97
2023-04-09T09:44:32.071Z,20.47
2023-04-09T09:47:00.590Z,25.80
2023-04-09T09:49:27.529Z,19.63
2023-04-09T09:51:59.309Z,20.93
2023-04-09T09:54:31.371Z,19.93
2023-04-09T09:57:04.514Z,19.80
2023-04-09T09:59:37.304Z,19.27
2023-04-09T10:02:19.850Z,17.97
2023-04-09T10:04:49.531Z,17.07
2023-04-09T10:07:17.157Z,18.27
2023-04-09T10:09:49.274Z,19.17
2023-04-09T10:12:17.000Z,16.87
2023-04-09T10:24:41.548Z,10.00
2023-04-09T10:27:15.621Z,16.70
2023-04-09T10:29:48.406Z,16.13
2023-04-09T10:32:21.613Z,16.73
2023-04-09T10:34:50.524Z,16.47
2023-04-09T10:37:28.434Z,16.47
2023-04-09T10:39:56.499Z,16.23
2023-04-09T10:42:32.746Z,15.93
2023-04-09T10:45:12.166Z,15.77
2023-04-09T10:47:43.708Z,16.57
2023-04-09T10:50:32.436Z,15.87
2023-04-09T10:53:02.510Z,16.87
2023-04-09T10:55:40.717Z,15.77
2023-04-09T10:58:13.587Z,16.37
2023-04-09T11:00:45.510Z,16.23
2023-04-09T11:03:30.553Z,17.93
2023-04-09T11:06:01.569Z,15.67
2023-04-09T11:08:30.558Z,14.07
2023-04-09T11:11:01.503Z,15.20
2023-04-09T15:24:58.071Z,6.20
2023-04-09T15:27:25.225Z,10.40
2023-04-09T15:29:52.339Z,10.43
2023-04-09T15:32:19.334Z,9.70
2023-04-09T15:34:46.396Z,9.63
2023-04-09T15:37:13.328Z,10.03
2023-04-09T15:39:40.479Z,10.33
2023-04-09T15:42:09.994Z,10.33
2023-04-09T15:44:39.037Z,10.87
2023-04-09T15:47:06.047Z,9.50
2023-04-09T15:49:35.266Z,10.43
2023-04-09T15:52:02.257Z,10.10
2023-04-09T15:54:29.225Z,9.10
2023-04-09T15:56:56.105Z,9.27
2023-04-09T15:59:23.013Z,8.67
2023-04-09T16:01:50.054Z,9.07
2023-04-09T16:04:17.119Z,9.10
2023-04-09T16:06:44.287Z,9.20
2023-04-09T16:09:11.250Z,9.07
2023-04-09T16:11:38.182Z,9.83
2023-04-09T16:14:05.237Z,9.23
2023-04-09T16:16:32.261Z,8.47
2023-04-09T16:19:01.083Z,8.43
2023-04-09T16:21:28.314Z,8.63
2023-04-09T16:23:55.969Z,8.80
2023-04-09T16:26:22.941Z,11.40
2023-04-09T16:28:49.913Z,8.83
2023-04-09T16:31:16.879Z,11.80
2023-04-09T16:33:43.830Z,8.30
2023-04-09T16:36:10.754Z,8.73
2023-04-09T16:38:37.740Z,12.53
2023-04-09T16:41:04.763Z,8.97
2023-04-09T16:43:31.690Z,8.50
2023-04-09T16:45:58.773Z,9.87
2023-04-09T16:48:25.712Z,9.60
2023-04-09T16:50:52.652Z,8.47
2023-04-09T16:53:19.770Z,8.37
2023-04-09T16:55:46.757Z,8.50
2023-04-09T16:58:13.681Z,8.83
2023-04-09T17:00:40.733Z,10.53
2023-04-09T17:03:07.729Z,15.13
2023-04-09T17:05:35.155Z,11.73
2023-04-09T17:08:02.132Z,11.30
2023-04-09T17:10:29.347Z,10.57
2023-04-09T17:12:56.374Z,12.50
2023-04-09T17:15:24.949Z,11.50
2023-04-09T17:17:53.392Z,10.93
2023-04-09T17:20:21.890Z,10.80
2023-04-09T17:22:49.062Z,11.07
2023-04-09T17:25:20.290Z,10.90
2023-04-09T17:27:47.226Z,10.57
2023-04-09T17:30:14.303Z,10.30
2023-04-09T17:32:41.716Z,9.33
2023-04-09T17:35:08.992Z,10.20
2023-04-09T17:37:37.616Z,10.07
2023-04-09T17:40:05.329Z,10.60
2023-04-09T17:42:32.309Z,10.53
2023-04-09T17:44:59.261Z,10.50
2023-04-09T17:47:26.315Z,10.20
2023-04-09T17:49:53.421Z,10.20
2023-04-09T17:52:20.482Z,9.87
2023-04-09T17:54:47.557Z,9.37
2023-04-09T17:57:15.475Z,9.13
2023-04-09T17:59:42.973Z,9.60
2023-04-09T18:02:10.114Z,10.57
2023-04-09T18:04:37.757Z,9.90
2023-04-09T18:07:05.070Z,10.93
2023-04-09T18:09:32.066Z,10.87
2023-04-09T18:12:01.339Z,11.10
2023-04-09T18:14:31.096Z,10.10
2023-04-09T18:16:59.153Z,11.03
2023-04-09T18:19:26.063Z,11.27
2023-04-09T18:21:52.976Z,12.80
2023-04-09T18:24:19.942Z,11.37
2023-04-09T18:26:47.305Z,11.47
2023-04-09T18:29:14.513Z,12.47
2023-04-09T18:31:41.519Z,13.80
2023-04-09T18:34:08.797Z,14.33
2023-04-09T18:36:35.864Z,13.93
2023-04-09T18:39:04.844Z,14.33
2023-04-09T18:41:32.000Z,17.20
2023-04-09T18:43:58.941Z,23.57
2023-04-09T18:46:26.515Z,27.40
2023-04-09T18:48:53.619Z,27.23
2023-04-09T18:51:20.980Z,26.80
2023-04-09T18:53:52.825Z,24.40
2023-04-09T18:56:21.106Z,18.00
2023-04-09T18:58:48.479Z,15.63
2023-04-09T19:01:17.326Z,13.77
2023-04-09T19:03:44.837Z,14.20
2023-04-09T19:06:13.220Z,14.73
2023-04-09T19:08:41.127Z,14.20
2023-04-09T19:11:08.061Z,15.13
2023-04-09T19:13:35.400Z,15.10
2023-04-09T19:16:03.210Z,13.67
2023-04-09T19:18:31.125Z,13.57
2023-04-09T19:20:59.508Z,15.30
2023-04-09T19:23:27.049Z,14.20
2023-04-09T19:25:55.554Z,14.20
2023-04-09T19:28:23.218Z,14.17
2023-04-09T19:30:52.399Z,15.63
2023-04-09T19:33:24.198Z,15.63
2023-04-09T19:35:52.620Z,18.27
2023-04-09T19:38:19.818Z,17.77
2023-04-09T19:40:47.003Z,18.53
2023-04-09T19:43:14.230Z,16.10
2023-04-09T19:45:42.542Z,17.33
2023-04-09T19:48:09.694Z,18.70
2023-04-09T19:50:37.913Z,18.17
2023-04-09T19:53:06.224Z,16.87
2023-04-09T19:55:33.785Z,15.20
2023-04-09T19:58:01.350Z,15.23
2023-04-09T20:00:28.600Z,15.57
2023-04-09T20:02:55.676Z,15.27
2023-04-09T20:05:23.002Z,15.00
2023-04-09T20:07:50.757Z,16.57
2023-04-09T20:10:17.801Z,16.33
2023-04-09T20:12:49.002Z,16.10
2023-04-09T20:15:17.684Z,16.93
2023-04-09T20:17:44.644Z,17.30
2023-04-09T20:20:12.174Z,18.53
2023-04-09T20:22:43.190Z,23.40
2023-04-09T20:25:11.761Z,24.67
2023-04-09T20:27:38.727Z,22.63
2023-04-09T20:30:06.766Z,18.80
2023-04-09T20:32:35.700Z,17.33
2023-04-09T20:35:02.799Z,15.03
2023-04-09T20:37:29.737Z,14.47
2023-04-09T20:39:58.645Z,14.27
2023-04-09T20:42:26.195Z,14.20
2023-04-09T20:44:53.229Z,13.17
2023-04-09T20:47:22.774Z,13.23
2023-04-09T20:49:51.015Z,14.43
2023-04-09T20:52:17.965Z,12.80
2023-04-09T20:54:45.394Z,13.80
2023-04-09T20:57:13.813Z,14.13
2023-04-09T20:59:41.052Z,14.23
2023-04-09T21:02:08.730Z,13.70
2023-04-09T21:04:35.884Z,13.93
2023-04-09T21:07:02.788Z,14.37
2023-04-09T21:09:31.378Z,16.60
2023-04-09T21:11:58.433Z,15.50
2023-04-09T21:14:26.198Z,17.20
2023-04-09T21:16:53.104Z,15.50
2023-04-09T21:19:20.367Z,13.77
2023-04-09T21:21:47.540Z,14.43
2023-04-09T21:24:15.565Z,14.97
2023-04-09T21:26:50.960Z,14.47
2023-04-09T21:29:20.637Z,13.97
2023-04-09T21:31:48.434Z,12.93
2023-04-09T21:34:15.824Z,14.80
2023-04-09T21:36:44.700Z,16.50
2023-04-09T21:39:14.350Z,13.60
2023-04-09T21:41:41.293Z,18.97
2023-04-09T21:44:08.593Z,16.73
2023-04-09T21:46:36.909Z,16.07
2023-04-09T21:49:04.390Z,13.87
2023-04-09T21:51:31.968Z,14.83
2023-04-09T21:54:06.097Z,14.63
2023-04-09T21:56:34.010Z,12.33
2023-04-09T21:59:01.198Z,12.87
2023-04-09T22:01:31.034Z,13.03
2023-04-09T22:03:59.062Z,12.20
2023-04-09T22:06:29.457Z,11.27
2023-04-09T22:08:57.966Z,10.50
2023-04-09T22:11:27.544Z,12.13
2023-04-09T22:13:57.811Z,11.00
2023-04-09T22:16:26.358Z,10.10
2023-04-09T22:18:54.446Z,10.07
2023-04-09T22:21:22.289Z,10.37
2023-04-09T22:23:49.337Z,10.80
2023-04-09T22:26:16.238Z,12.57
2023-04-09T22:28:43.148Z,11.20
2023-04-09T22:31:10.157Z,10.77
2023-04-09T22:33:37.113Z,11.40
2023-04-09T22:36:04.234Z,11.63
2023-04-09T22:38:31.228Z,12.87
2023-04-09T22:40:58.179Z,12.47
2023-04-09T22:43:25.355Z,13.57
2023-04-09T22:45:54.213Z,12.50
2023-04-09T22:48:22.056Z,13.30
2023-04-09T22:50:50.292Z,27.00
2023-04-09T22:53:20.592Z,13.27
2023-04-09T22:55:50.738Z,23.63
2023-04-09T22:58:18.335Z,15.70
2023-04-09T23:00:46.892Z,15.37
2023-04-09T23:03:14.090Z,14.53
2023-04-09T23:05:41.362Z,12.53
2023-04-09T23:08:08.933Z,13.43
2023-04-09T23:10:36.164Z,14.40
2023-04-09T23:13:03.486Z,13.27
2023-04-09T23:15:30.435Z,14.90
2023-04-09T23:17:57.418Z,15.27
2023-04-09T23:20:24.723Z,14.07
2023-04-09T23:22:51.636Z,14.23
2023-04-09T23:25:18.678Z,13.20
2023-04-09T23:27:46.564Z,13.23
2023-04-09T23:30:16.999Z,13.97
2023-04-09T23:32:45.362Z,14.67
2023-04-09T23:35:12.551Z,15.57
2023-04-09T23:37:40.999Z,15.03
2023-04-09T23:40:09.145Z,14.37
2023-04-09T23:42:36.232Z,13.90
2023-04-09T23:45:04.421Z,14.30
2023-04-09T23:47:33.237Z,15.50
2023-04-09T23:50:05.035Z,14.27
2023-04-09T23:52:36.828Z,14.73
2023-04-09T23:55:09.630Z,16.47
2023-04-09T23:57:36.663Z,13.50
